Terminal Aerodrome Forecast
Issued by NWS Sterling, VA

Home | Current Version | Previous Version | Text Only | Print | Product List | Glossary On
Versions: 1 2 3 4 5 6 7 8 9 10 11 12 13 14 15 16 17 18
000
FTUS41 KLWX 152300
TAFCHO
TAF
KCHO 152331Z 1600/1624 33014G22KT 5SM -RAPLSN SCT015 OVC050
     FM160100 33014G22KT P6SM BKN050
     FM160300 32010KT P6SM FEW250
     FM161300 02010KT P6SM SKC
     FM161800 05008KT P6SM SKC=

USA.gov is the U.S. government's official web portal to all federal, state and local government web resources and services.